North Henderson, Illinois
Current Conditions -  °F | °C
As of 8:55 AM on Monday 24 Nov 2014 (Local Time) from KGBG Reporting Station
Overcast Overcast  
Wind Chill: 16°   Ceiling: 1000
Heat Index: 31°   Visibility: 7mi
Dew Point: 29°   Wind: 29mph
Humidity: 94%   Direction: 270°W
Pressure: 29.41"   Gusts: 33mph
Location:  41.09°N, 90.48°W
Report Text: KGBG 241455Z AUTO 27025G29KT 7SM OVC010 M01/M02 A2941 RMK AO2 T10071016
Loading
Personal Weather Stations






























Interactive Weather Map New forecast layout! Learn more

10-Day Weather Forecast

Advertisements
Track Severe Weather on mobile